Tropical Cyclones
[Index]
Main Index Home Page Stock Weather Photos Extreme Storms Discussion Storm News and Storm Chasing Reports Tropical Cyclones / Hurricanes / Typhoons Weather Data and Links Wild Fires / Bushfires Weather Observation Techniques Weather Picture Catalogue Tornado Pictures and Reports Stock Video Footage and DVDs for sale
Season 2006-2007 Tropical Cyclone YANI Track Map
Season 2006-2007 Summaries: [BoM-AU] [JTWC-AU] [JTWC-SIO] [JTWC-SPAC] [JTWC-SH]
<<- Previous TC | JTWC 2006-2007 Season | Next TC ->>

click for intensity scale information  Lat/long Grid: Show Hide

 Date Labels: Show Hide

Joint Typhoon Warning Centre Cyclone Data

Name: YANI

18 Nov 2006 18:00 UTC to 27 Nov 2006 00:00 UTC

    date/time    lat    long     hPa   cat  kts
2006-11-18 18   12.1   162.6    1004         20          
2006-11-19 00   12.4   162.5    1004         20          
2006-11-19 06   12.6   162.4    1004         20          
2006-11-19 12   12.8   162.2    1004         20          
2006-11-19 18   12.4   162.1    1004         20          
2006-11-20 00   12.3   161.7    1004         20          
2006-11-20 06   12.4   161.3    1004         20          
2006-11-20 12   12.7   160.9    1004         20          
2006-11-20 18   13.1   160.7    1004         20          
2006-11-21 00   12.9   161.3    1004         20          
2006-11-21 06   12.7   161.8    1002         25          
2006-11-21 12   12.3   162.0    1000         30          
2006-11-21 18   12.2   162.2     997         35          
2006-11-22 00   12.1   162.4     991    1    45          
2006-11-22 06   12.3   162.6     991    1    45          
2006-11-22 12   12.5   162.7     991    1    45          
2006-11-22 18   12.7   162.8     991    1    50          
2006-11-23 00   12.9   163.0     984    2    55          
2006-11-23 00   12.9   163.0     984    2    55          
2006-11-23 06   13.2   163.1     984    2    55          
2006-11-23 06   13.2   163.1     984    2    55          
2006-11-23 12   13.6   163.2     976    2    65          
2006-11-23 12   13.6   163.2     976    2    65          
2006-11-23 18   14.0   163.3     972    2    70          
2006-11-23 18   14.0   163.3     972    2    70          
2006-11-23 18   14.0   163.3     972    2    70          
2006-11-24 00   14.1   162.9     980    2    60          
2006-11-24 00   14.1   162.9     980    2    60          
2006-11-24 06   14.0   162.4     987    1    50          
2006-11-24 12   13.5   161.9    1000         30          
2006-11-24 18   13.0   161.6    1000         30          
2006-11-25 00   13.1   161.4    1004         25          
2006-11-25 06   13.3   161.0    1004         25          
2006-11-25 12   13.5   160.5    1002         25          
2006-11-25 18   13.6   160.0    1002         25          
2006-11-26 00   13.5   159.7    1003         25          
2006-11-26 06   13.6   159.5    1002         25          
2006-11-26 12   13.7   159.3    1002         25          
2006-11-26 18   13.8   159.1    1002         25          
2006-11-27 00   14.1   158.8    1004         20          
Winds are 1-min average.

Tropical cyclone tracks developed by Michael Bath using data from the Joint Typhoon Warning Centre Best Tracks and Google Maps.


[Australian Severe Weather index] [Copyright Notice] [Email Contacts] [Search This Site] [Privacy Policy]
Document: tropical_cyclone_yani.htm Updated: 28 June 2017